Temp: 16.3°C   Hum: 71%
  Wind: 2.0mph   Dir: SSW (210°)
  Rain: 0.6mm Rate: 0.0mm/hr
  Pressure: 1017.7mb

Historic data

Bath Spa Weather Station Historical Data
Daily Summary for October 16, 2021 Units:  Metric    English   Both
Daily Weekly Monthly Yearly Custom
  High: Low: Average:
Temperature: 17.3 °C 9.6 °C 12.9 °C
Dew Point: 13.6 °C 8.9 °C 11.1 °C
Humidity: 94.2% 70.4% 86%
Wind Speed: 12.6km/h 0km/h 1.9km/h
Wind Gust: 19.3km/h - -
Wind- - ESE
Pressure: 1022.2 hPa 1017.8 hPa -
Precipitation: 0.51 mm    
Historical Graphs
 
 
Tabular Data for October 16, 2021
Time Temperature Dew Point Pressure Wind Wind Speed Wind Gust Humidity Rainfall Rate (Hourly) solar
00:09 12.1 °C 10.3 °C 1022.2 hPa NE 0.8 km/h 4.8 km/h 86% 0 mm 0 W/m2
00:14 12.1 °C 10.3 °C 1022.2 hPa NE 1.9 km/h 4.8 km/h 86% 0 mm 0 W/m2
00:19 12.1 °C 10.3 °C 1022.2 hPa NE 0.8 km/h 4.8 km/h 86% 0 mm 0 W/m2
00:24 12.1 °C 10.3 °C 1022.2 hPa NE 1 km/h 3.2 km/h 86% 0 mm 0 W/m2
00:29 12.1 °C 10.3 °C 1022.2 hPa NE 1.1 km/h 3.2 km/h 86% 0 mm 0 W/m2
00:34 12.1 °C 10.3 °C 1022.2 hPa NE 0.3 km/h 3.2 km/h 86% 0 mm 0 W/m2
00:39 12.1 °C 10.2 °C 1022.2 hPa NE 0.3 km/h 3.2 km/h 86% 0 mm 0 W/m2
00:44 12.1 °C 10.3 °C 1022.2 hPa NE 0.6 km/h 3.2 km/h 86% 0 mm 0 W/m2
00:49 12 °C 10.2 °C 1022.2 hPa NE 0.6 km/h 3.2 km/h 86% 0 mm 0 W/m2
00:54 12.1 °C 10.3 °C 1022.2 hPa NE 0.8 km/h 3.2 km/h 86% 0 mm 0 W/m2
00:59 12 °C 10.2 °C 1021.9 hPa NE 0.8 km/h 3.2 km/h 86% 0 mm 0 W/m2
01:03 12 °C 10.3 °C 1021.9 hPa NE 0.8 km/h 3.2 km/h 86.8% 0 mm 0 W/m2
01:09 12 °C 10.4 °C 1021.9 hPa NE 1 km/h 4.8 km/h 87% 0 mm 0 W/m2
01:14 12 °C 10.4 °C 1021.9 hPa Calm   1.6 km/h 87% 0 mm 0 W/m2
01:19 12 °C 10.4 °C 1021.9 hPa Calm     87% 0 mm 0 W/m2
01:24 11.9 °C 10.3 °C 1021.9 hPa NE 2.6 km/h 4.8 km/h 87% 0 mm 0 W/m2
01:29 11.9 °C 10.3 °C 1021.9 hPa NE 0.6 km/h 4.8 km/h 87% 0 mm 0 W/m2
01:34 11.9 °C 10.3 °C 1021.9 hPa NE 2.6 km/h 6.4 km/h 87% 0 mm 0 W/m2
01:39 11.9 °C 10.3 °C 1021.9 hPa NE 1.3 km/h 4.8 km/h 87% 0 mm 0 W/m2
01:44 11.8 °C 10.2 °C 1021.9 hPa NE 1 km/h 4.8 km/h 87% 0 mm 0 W/m2
01:49 11.8 °C 10.2 °C 1021.9 hPa NE 0.6 km/h 3.2 km/h 87% 0 mm 0 W/m2
01:54 11.8 °C 10.2 °C 1021.9 hPa NE 0.3 km/h 3.2 km/h 87% 0 mm 0 W/m2
01:59 11.7 °C 10.2 °C 1021.9 hPa Calm   1.6 km/h 87% 0 mm 0 W/m2
02:04 11.7 °C 10.1 °C 1021.9 hPa NE 0.6 km/h 4.8 km/h 87% 0 mm 0 W/m2
02:09 11.7 °C 10.1 °C 1021.9 hPa NE 1.3 km/h 4.8 km/h 87% 0 mm 0 W/m2
02:14 11.7 °C 10.1 °C 1021.9 hPa NE 0.6 km/h 4.8 km/h 87% 0 mm 0 W/m2
02:19 11.7 °C 10.1 °C 1021.9 hPa NE 0.6 km/h 6.4 km/h 87% 0 mm 0 W/m2
02:24 11.7 °C 10.1 °C 1021.9 hPa Calm     87% 0 mm 0 W/m2
02:29 11.7 °C 10.1 °C 1021.9 hPa NE 1.9 km/h 3.2 km/h 87% 0 mm 0 W/m2
02:34 11.7 °C 10.2 °C 1021.6 hPa NE 0.3 km/h 3.2 km/h 87.6% 0 mm 0 W/m2
02:39 11.7 °C 10.3 °C 1021.6 hPa NE 1 km/h 3.2 km/h 88% 0 mm 0 W/m2
02:44 11.8 °C 10.4 °C 1021.6 hPa NE 0.3 km/h 3.2 km/h 88% 0 mm 0 W/m2
02:49 11.8 °C 10.4 °C 1021.6 hPa NE 1.3 km/h 4.8 km/h 88% 0 mm 0 W/m2
02:54 11.8 °C 10.4 °C 1021.6 hPa NE 0.6 km/h 3.2 km/h 88% 0 mm 0 W/m2
02:59 11.7 °C 10.3 °C 1021.6 hPa NE 1.9 km/h 4.8 km/h 88% 0.51 mm 0 W/m2
03:04 11.7 °C 10.3 °C 1021.6 hPa NE 1.4 km/h 3.2 km/h 88% 0.51 mm 0 W/m2
03:09 11.7 °C 10.3 °C 1021.2 hPa NE 2.1 km/h 3.2 km/h 88% 0.51 mm 0 W/m2
03:14 11.7 °C 10.3 °C 1021.2 hPa NE 1.9 km/h 4.8 km/h 88% 0.51 mm 0 W/m2
03:19 11.7 °C 10.4 °C 1021.2 hPa Calm   1.6 km/h 88.8% 0.51 mm 0 W/m2
03:24 11.7 °C 10.3 °C 1021.2 hPa NE 0.3 km/h 3.2 km/h 89% 0.51 mm 0 W/m2
03:29 11.6 °C 10.3 °C 1021.2 hPa NE 2.1 km/h 4.8 km/h 89% 0.51 mm 0 W/m2
03:34 11.6 °C 10.3 °C 1021.2 hPa NE 1.9 km/h 4.8 km/h 89% 0.51 mm 0 W/m2
03:39 11.5 °C 10.3 °C 1021.2 hPa NE 0.3 km/h 3.2 km/h 89.2% 0.51 mm 0 W/m2
03:44 11.4 °C 10.2 °C 1021.2 hPa Calm     89.2% 0.51 mm 0 W/m2
03:49 11.4 °C 10.2 °C 1021.2 hPa Calm     89.4% 0.51 mm 0 W/m2
03:54 11.3 °C 10.2 °C 1020.9 hPa NE 0.3 km/h 3.2 km/h 90% 0.51 mm 0 W/m2
03:59 11.2 °C 10.1 °C 1020.9 hPa Calm   3.2 km/h 90% 0.51 mm 0 W/m2
04:04 11.1 °C 10 °C 1021.2 hPa NE 0.3 km/h 1.6 km/h 90% 0 mm 0 W/m2
04:09 10.9 °C 9.8 °C 1021.2 hPa Calm   3.2 km/h 90% 0 mm 0 W/m2
04:14 10.8 °C 9.7 °C 1021.2 hPa Calm     90% 0 mm 0 W/m2
04:19 10.7 °C 9.6 °C 1021.2 hPa Calm     90% 0 mm 0 W/m2
04:24 10.6 °C 9.5 °C 1020.9 hPa Calm     90% 0 mm 0 W/m2
04:29 10.6 °C 9.6 °C 1020.9 hPa NE 0.3 km/h 1.6 km/h 90.4% 0 mm 0 W/m2
04:34 10.6 °C 9.7 °C 1020.9 hPa Calm     91% 0 mm 0 W/m2
04:39 10.6 °C 9.7 °C 1020.9 hPa Calm     91% 0 mm 0 W/m2
04:44 10.6 °C 9.7 °C 1020.9 hPa NE 0.3 km/h 1.6 km/h 91% 0 mm 0 W/m2
04:49 10.6 °C 9.7 °C 1020.9 hPa Calm     91% 0 mm 0 W/m2
04:54 10.6 °C 9.7 °C 1020.9 hPa Calm   1.6 km/h 91% 0 mm 0 W/m2
04:59 10.6 °C 9.7 °C 1020.9 hPa Calm     91% 0 mm 0 W/m2
05:04 10.6 °C 9.7 °C 1020.5 hPa Calm     91% 0 mm 0 W/m2
05:09 10.6 °C 9.7 °C 1020.5 hPa Calm     91.2% 0 mm 0 W/m2
05:14 10.6 °C 9.8 °C 1020.5 hPa Calm     92% 0 mm 0 W/m2
05:19 10.6 °C 9.7 °C 1020.5 hPa Calm     91% 0 mm 0 W/m2
05:24 10.4 °C 9.6 °C 1020.5 hPa Calm     91.2% 0 mm 0 W/m2
05:29 10.4 °C 9.7 °C 1020.5 hPa Calm     92% 0 mm 0 W/m2
05:34 10.4 °C 9.7 °C 1020.5 hPa Calm     92% 0 mm 0 W/m2
05:39 10.3 °C 9.6 °C 1020.5 hPa Calm     92% 0 mm 0 W/m2
05:44 10.3 °C 9.6 °C 1020.5 hPa Calm     92% 0 mm 0 W/m2
05:49 10.2 °C 9.4 °C 1020.5 hPa Calm     92% 0 mm 0 W/m2
05:54 10.1 °C 9.4 °C 1020.5 hPa Calm     92% 0 mm 0 W/m2
05:59 9.9 °C 9.3 °C 1020.5 hPa Calm     92% 0 mm 0 W/m2
06:04 9.8 °C 9.2 °C 1020.5 hPa Calm     92% 0 mm 0 W/m2
06:09 9.7 °C 9 °C 1020.5 hPa Calm     92% 0 mm 0 W/m2
06:14 9.6 °C 8.9 °C 1020.5 hPa Calm     92% 0 mm 0 W/m2
06:19 9.7 °C 8.9 °C 1020.5 hPa Calm     92% 0 mm 0 W/m2
06:24 9.7 °C 8.9 °C 1020.5 hPa Calm     92% 0 mm 0 W/m2
06:29 9.7 °C 9 °C 1020.5 hPa Calm     92% 0 mm 0 W/m2
06:34 9.8 °C 9.2 °C 1020.5 hPa Calm     92.5% 0 mm 0 W/m2
06:39 9.8 °C 9.2 °C 1020.5 hPa Calm     93% 0 mm 0 W/m2
06:44 9.8 °C 9.2 °C 1020.5 hPa Calm     92.8% 0 mm 0 W/m2
06:49 9.9 °C 9.3 °C 1020.5 hPa Calm     93% 0 mm 0 W/m2
06:54 10 °C 9.4 °C 1020.5 hPa Calm     93% 0 mm 0 W/m2
06:59 10.1 °C 9.4 °C 1020.5 hPa Calm     93% 0 mm 0 W/m2
07:04 10.1 °C 9.5 °C 1020.5 hPa Calm     93% 0 mm 0 W/m2
07:09 10.1 °C 9.5 °C 1020.5 hPa Calm     93% 0 mm 0 W/m2
07:14 10.1 °C 9.5 °C 1020.5 hPa Calm     93% 0 mm 0 W/m2
07:19 10.2 °C 9.6 °C 1020.5 hPa Calm     93% 0 mm 0 W/m2
07:24 10.2 °C 9.6 °C 1020.5 hPa Calm     93% 0 mm 0 W/m2
07:29 10.2 °C 9.6 °C 1020.5 hPa Calm     93% 0 mm 0 W/m2
07:34 10.3 °C 9.7 °C 1020.5 hPa Calm     93% 0 mm 0 W/m2
07:39 10.3 °C 9.7 °C 1020.5 hPa Calm     93% 0 mm 0 W/m2
07:44 10.3 °C 9.7 °C 1020.5 hPa Calm     93% 0 mm 5 W/m2
07:49 10.4 °C 9.8 °C 1020.5 hPa Calm     93% 0 mm 7 W/m2
07:54 10.4 °C 9.8 °C 1020.5 hPa Calm     93% 0 mm 12 W/m2
07:59 10.4 °C 9.8 °C 1020.5 hPa Calm     93% 0 mm 16 W/m2
08:04 10.6 °C 10 °C 1020.5 hPa Calm     93% 0 mm 25 W/m2
08:09 10.6 °C 10.1 °C 1020.9 hPa Calm     93.6% 0 mm 30 W/m2
08:14 10.7 °C 10.3 °C 1020.9 hPa Calm     93.8% 0 mm 35 W/m2
08:19 10.8 °C 10.3 °C 1020.9 hPa Calm     93.2% 0 mm 37 W/m2
08:24 10.9 °C 10.4 °C 1020.9 hPa NE 0.3 km/h 1.6 km/h 93.4% 0 mm 28 W/m2
08:29 11.1 °C 10.7 °C 1020.9 hPa NE 0.3 km/h 3.2 km/h 94% 0 mm 30 W/m2
08:34 11.2 °C 10.8 °C 1020.9 hPa NE 0.6 km/h 3.2 km/h 94% 0 mm 35 W/m2
08:39 11.3 °C 10.8 °C 1020.9 hPa NE 0.3 km/h 3.2 km/h 94% 0 mm 37 W/m2
08:44 11.3 °C 10.9 °C 1020.9 hPa NE 1.4 km/h 3.2 km/h 94% 0 mm 51 W/m2
08:49 11.3 °C 10.9 °C 1020.9 hPa Calm   3.2 km/h 94% 0 mm 54 W/m2
08:54 11.4 °C 11 °C 1020.9 hPa NE 0.6 km/h 3.2 km/h 94% 0 mm 63 W/m2
08:59 11.4 °C 11 °C 1020.9 hPa NE 3.9 km/h 6.4 km/h 94% 0 mm 95 W/m2
09:04 11.4 °C 11 °C 1020.9 hPa NE 0.6 km/h 4.8 km/h 94% 0 mm 153 W/m2
09:09 11.4 °C 11 °C 1020.9 hPa NE 1 km/h 6.4 km/h 94% 0 mm 163 W/m2
09:14 11.4 °C 11 °C 1021.2 hPa NE 2.1 km/h 6.4 km/h 94% 0 mm 169 W/m2
09:19 11.4 °C 11 °C 1021.2 hPa NE 1.3 km/h 4.8 km/h 94% 0 mm 83 W/m2
09:24 11.4 °C 11 °C 1021.2 hPa NE 2.3 km/h 6.4 km/h 94% 0 mm 84 W/m2
09:29 11.4 °C 11 °C 1021.2 hPa NE 1.3 km/h 6.4 km/h 94% 0 mm 100 W/m2
09:34 11.6 °C 11.2 °C 1021.2 hPa NE 2.4 km/h 6.4 km/h 94% 0 mm 63 W/m2
09:39 11.5 °C 11.1 °C 1021.2 hPa NE 1.3 km/h 4.8 km/h 94% 0.25 mm 49 W/m2
09:44 11.4 °C 11.1 °C 1021.2 hPa NE 3.5 km/h 8 km/h 94% 0.25 mm 102 W/m2
09:49 11.4 °C 11 °C 1020.9 hPa NE 3.2 km/h 6.4 km/h 94% 0.25 mm 104 W/m2
09:54 11.5 °C 11.1 °C 1020.9 hPa NE 2.1 km/h 6.4 km/h 94% 0.25 mm 95 W/m2
09:59 11.5 °C 11.1 °C 1020.9 hPa NE 1.8 km/h 6.4 km/h 94% 0.25 mm 105 W/m2
10:04 11.5 °C 11.1 °C 1021.2 hPa NE 1.6 km/h 4.8 km/h 94% 0.25 mm 102 W/m2
10:09 11.5 °C 11.1 °C 1021.2 hPa NE 1 km/h 3.2 km/h 94% 0.25 mm 111 W/m2
10:14 11.4 °C 11 °C 1021.2 hPa NE 1.3 km/h 4.8 km/h 94% 0.25 mm 114 W/m2
10:19 11.4 °C 11 °C 1021.2 hPa NE 0.8 km/h 3.2 km/h 94% 0.25 mm 104 W/m2
10:24 11.4 °C 11 °C 1021.2 hPa NE 1 km/h 3.2 km/h 94% 0.25 mm 105 W/m2
10:29 11.7 °C 11.2 °C 1021.2 hPa NE 0.3 km/h 3.2 km/h 94% 0.25 mm 113 W/m2
10:34 11.8 °C 11.3 °C 1021.2 hPa Calm     94% 0.25 mm 135 W/m2
10:39 12 °C 11.6 °C 1021.2 hPa NE 1 km/h 4.8 km/h 94% 0.25 mm 137 W/m2
10:44 11.9 °C 11.5 °C 1021.2 hPa NE 0.8 km/h 6.4 km/h 94% 0 mm 176 W/m2
10:49 12.1 °C 11.7 °C 1021.2 hPa NE 0.6 km/h 3.2 km/h 94% 0 mm 202 W/m2
10:54 12.2 °C 11.8 °C 1020.9 hPa Calm   3.2 km/h 94% 0 mm 197 W/m2
10:59 12.2 °C 11.8 °C 1020.9 hPa NE 0.3 km/h 3.2 km/h 94% 0 mm 202 W/m2
11:04 12.5 °C 12.1 °C 1020.9 hPa NE 1.3 km/h 4.8 km/h 94.2% 0 mm 258 W/m2
11:09 12.8 °C 12.4 °C 1020.9 hPa NE 3.4 km/h 6.4 km/h 94.2% 0 mm 308 W/m2
11:14 13.1 °C 12.7 °C 1020.9 hPa NE 4 km/h 6.4 km/h 94% 0 mm 279 W/m2
11:19 13.4 °C 12.9 °C 1020.9 hPa NE 3.7 km/h 8 km/h 94% 0 mm 350 W/m2
11:24 13.7 °C 13.2 °C 1020.9 hPa NE 2.3 km/h 8 km/h 94% 0 mm 325 W/m2
11:29 13.7 °C 13.1 °C 1020.9 hPa NE 1.9 km/h 8 km/h 93.2% 0 mm 279 W/m2
11:34 13.7 °C 13.2 °C 1020.9 hPa NE 1.4 km/h 4.8 km/h 93% 0 mm 316 W/m2
11:39 14.1 °C 13.4 °C 1020.9 hPa NE 2.6 km/h 4.8 km/h 92.6% 0 mm 218 W/m2
11:44 14.1 °C 13.2 °C 1020.9 hPa NE 4.5 km/h 11.3 km/h 91.8% 0 mm 306 W/m2
11:49 13.8 °C 12.8 °C 1020.9 hPa NE 5.3 km/h 12.9 km/h 90.6% 0 mm 292 W/m2
11:54 13.6 °C 12.5 °C 1020.5 hPa NE 6.4 km/h 12.9 km/h 90% 0 mm 279 W/m2
11:59 13.6 °C 12.5 °C 1020.5 hPa NE 4 km/h 8 km/h 90% 0 mm 367 W/m2
12:04 13.8 °C 12.7 °C 1020.5 hPa NE 4 km/h 8 km/h 90% 0 mm 369 W/m2
12:09 14.2 °C 13.1 °C 1020.5 hPa NE 5 km/h 12.9 km/h 90% 0 mm 524 W/m2
12:13 14.6 °C 13.3 °C 1020.5 hPa NE 6 km/h 16.1 km/h 89.3% 0 mm 554 W/m2
12:19 15 °C 13.5 °C 1020.5 hPa NE 3.2 km/h 11.3 km/h 88% 0 mm 686 W/m2
12:24 15.4 °C 13.6 °C 1020.5 hPa NE 4.7 km/h 8 km/h 86% 0 mm 628 W/m2
12:29 15.4 °C 13.3 °C 1020.5 hPa NE 4.3 km/h 11.3 km/h 84.4% 0 mm 633 W/m2
12:34 14.9 °C 12.9 °C 1020.5 hPa NE 7.1 km/h 12.9 km/h 84.6% 0 mm 429 W/m2
12:39 15.2 °C 13.3 °C 1020.5 hPa NE 3.4 km/h 11.3 km/h 85.6% 0 mm 243 W/m2
12:44 15.3 °C 13.3 °C 1020.5 hPa NE 4.7 km/h 11.3 km/h 85.2% 0 mm 216 W/m2
12:49 15.2 °C 13.2 °C 1020.5 hPa NE 5 km/h 11.3 km/h 85% 0 mm 211 W/m2
12:54 15.2 °C 13.2 °C 1020.2 hPa NE 4.7 km/h 8 km/h 85% 0 mm 251 W/m2
12:59 15.4 °C 13.4 °C 1020.2 hPa NE 5.6 km/h 11.3 km/h 85% 0 mm 258 W/m2
13:04 15.7 °C 13.6 °C 1020.2 hPa NE 4.5 km/h 11.3 km/h 84.4% 0 mm 471 W/m2
13:09 15.8 °C 13.6 °C 1019.9 hPa NE 3.2 km/h 11.3 km/h 83.6% 0 mm 276 W/m2
13:14 16 °C 13.6 °C 1019.9 hPa NE 3.2 km/h 17.7 km/h 82.8% 0 mm 626 W/m2
13:19 16.2 °C 13.3 °C 1019.9 hPa East 6.4 km/h 17.7 km/h 80.4% 0 mm 585 W/m2
13:24 16.5 °C 13.3 °C 1019.9 hPa ESE 4.7 km/h 11.3 km/h 78.8% 0 mm 554 W/m2
13:29 16.7 °C 13.2 °C 1019.5 hPa ESE 4.7 km/h 11.3 km/h 77% 0 mm 566 W/m2
13:34 16.9 °C 13.1 °C 1019.5 hPa ESE 4.8 km/h 11.3 km/h 76% 0 mm 469 W/m2
13:39 16.8 °C 12.9 °C 1019.5 hPa SSE 12.6 km/h 19.3 km/h 75.6% 0 mm 292 W/m2
13:44 16.3 °C 12.7 °C 1019.5 hPa South 6.6 km/h 19.3 km/h 76.8% 0 mm 450 W/m2
13:49 16.4 °C 12.8 °C 1019.5 hPa South 7.1 km/h 12.9 km/h 76.8% 0 mm 494 W/m2
13:54 16.6 °C 12.9 °C 1019.5 hPa South 5.8 km/h 11.3 km/h 76.6% 0 mm 534 W/m2
13:59 16.5 °C 12.8 °C 1019.5 hPa South 6.4 km/h 14.5 km/h 76.6% 0 mm 534 W/m2
14:04 16.3 °C 12.7 °C 1019.5 hPa South 5.3 km/h 12.9 km/h 76.6% 0 mm 297 W/m2
14:09 16.5 °C 12.9 °C 1019.5 hPa South 6.1 km/h 11.3 km/h 77% 0 mm 283 W/m2
14:14 16.6 °C 12.8 °C 1019.2 hPa South 5.3 km/h 11.3 km/h 76% 0 mm 410 W/m2
14:19 16.7 °C 12.8 °C 1019.2 hPa South 5.3 km/h 11.3 km/h 75.8% 0 mm 374 W/m2
14:24 16.9 °C 12.9 °C 1019.2 hPa South 5.3 km/h 9.7 km/h 74.8% 0 mm 408 W/m2
14:29 17 °C 12.8 °C 1019.2 hPa South 4.8 km/h 9.7 km/h 74.2% 0 mm 473 W/m2
14:33 17.1 °C 13.1 °C 1018.8 hPa South 5.1 km/h 9.7 km/h 74.5% 0 mm 214 W/m2
14:39 16.8 °C 12.6 °C 1018.8 hPa South 7.6 km/h 12.9 km/h 74% 0 mm 264 W/m2
14:44 16.8 °C 12.6 °C 1018.8 hPa South 5 km/h 9.7 km/h 74.4% 0 mm 250 W/m2
14:49 16.8 °C 12.7 °C 1018.8 hPa South 4.7 km/h 12.9 km/h 74.6% 0 mm 285 W/m2
14:54 16.7 °C 12.6 °C 1018.8 hPa South 8.4 km/h 14.5 km/h 74.2% 0 mm 499 W/m2
14:59 16.8 °C 12.6 °C 1018.8 hPa South 6.6 km/h 14.5 km/h 74% 0 mm 550 W/m2
15:04 17.2 °C 12.8 °C 1018.8 hPa South 5.6 km/h 11.3 km/h 73.4% 0 mm 533 W/m2
15:09 17.3 °C 12.8 °C 1018.5 hPa South 5.8 km/h 11.3 km/h 72.4% 0 mm 378 W/m2
15:14 17.2 °C 12.7 °C 1018.5 hPa South 6.3 km/h 11.3 km/h 73% 0 mm 304 W/m2
15:19 17 °C 12.7 °C 1018.5 hPa South 7.1 km/h 12.9 km/h 73.2% 0 mm 211 W/m2
15:24 16.8 °C 12.7 °C 1018.5 hPa South 6.1 km/h 12.9 km/h 74% 0 mm 250 W/m2
15:29 16.9 °C 12.7 °C 1018.5 hPa South 6.6 km/h 11.3 km/h 74% 0 mm 246 W/m2
15:34 16.9 °C 12.9 °C 1018.5 hPa South 3.7 km/h 9.7 km/h 74.8% 0 mm 396 W/m2
15:39 17.2 °C 13.1 °C 1018.5 hPa South 3.9 km/h 8 km/h 74.4% 0 mm 399 W/m2
15:44 17.3 °C 13.1 °C 1018.5 hPa South 5.1 km/h 11.3 km/h 73.8% 0 mm 383 W/m2
15:49 17.3 °C 13.2 °C 1018.5 hPa South 2.6 km/h 8 km/h 74.4% 0 mm 329 W/m2
15:54 17.1 °C 13.1 °C 1018.5 hPa South 5.8 km/h 9.7 km/h 74.8% 0 mm 255 W/m2
15:59 16.7 °C 12.8 °C 1018.5 hPa South 7.4 km/h 11.3 km/h 75.4% 0 mm 121 W/m2
16:04 16.5 °C 12.7 °C 1018.5 hPa South 5 km/h 11.3 km/h 76.2% 0 mm 127 W/m2
16:09 16.6 °C 12.9 °C 1018.5 hPa South 3.4 km/h 8 km/h 76.8% 0 mm 100 W/m2
16:14 16.6 °C 12.8 °C 1018.5 hPa South 4.5 km/h 9.7 km/h 76.2% 0 mm 269 W/m2
16:19 16.6 °C 12.8 °C 1018.5 hPa South 3.5 km/h 9.7 km/h 76% 0 mm 304 W/m2
16:24 16.8 °C 12.9 °C 1018.5 hPa South 5.3 km/h 11.3 km/h 75.8% 0 mm 329 W/m2
16:29 17 °C 13.1 °C 1018.5 hPa South 4.7 km/h 9.7 km/h 75.2% 0 mm 336 W/m2
16:34 17.2 °C 12.9 °C 1018.5 hPa South 6 km/h 11.3 km/h 73.6% 0 mm 142 W/m2
16:39 16.9 °C 12.3 °C 1018.5 hPa South 5.6 km/h 11.3 km/h 72% 0 mm 83 W/m2
16:44 16.8 °C 12.4 °C 1018.5 hPa South 4.2 km/h 9.7 km/h 73% 0 mm 171 W/m2
16:49 16.9 °C 12.4 °C 1018.5 hPa South 3.9 km/h 9.7 km/h 72.4% 0 mm 202 W/m2
16:54 17.1 °C 12.5 °C 1018.2 hPa South 6 km/h 8 km/h 72% 0 mm 202 W/m2
16:59 17.2 °C 12.6 °C 1018.2 hPa SSW 8.5 km/h 16.1 km/h 71.8% 0 mm 171 W/m2
17:04 17.1 °C 12.2 °C 1018.5 hPa SSW 9 km/h 14.5 km/h 70.8% 0 mm 130 W/m2
17:09 16.8 °C 11.9 °C 1018.5 hPa SSW 7.7 km/h 16.1 km/h 70.4% 0 mm 105 W/m2
17:14 16.8 °C 12.1 °C 1018.5 hPa SSW 4.5 km/h 8 km/h 71.4% 0 mm 84 W/m2
17:19 16.7 °C 12.1 °C 1018.2 hPa SSW 6.6 km/h 11.3 km/h 72% 0 mm 63 W/m2
17:24 16.4 °C 11.9 °C 1018.5 hPa SSW 9.5 km/h 14.5 km/h 72.4% 0 mm 51 W/m2
17:29 16.3 °C 11.8 °C 1018.5 hPa SSW 5.6 km/h 11.3 km/h 73% 0 mm 46 W/m2
17:34 16.2 °C 11.8 °C 1018.5 hPa SSW 6 km/h 9.7 km/h 73% 0 mm 37 W/m2
17:39 16 °C 11.8 °C 1018.5 hPa SSW 4 km/h 9.7 km/h 74% 0 mm 33 W/m2
17:44 15.8 °C 11.8 °C 1018.5 hPa SSW 6.1 km/h 9.7 km/h 74.2% 0 mm 28 W/m2
17:49 15.7 °C 11.8 °C 1018.5 hPa SSW 6.8 km/h 11.3 km/h 75% 0 mm 25 W/m2
17:54 15.6 °C 11.8 °C 1018.5 hPa SSW 1.9 km/h 9.7 km/h 75.6% 0 mm 21 W/m2
17:59 15.4 °C 11.7 °C 1018.5 hPa SSW 1.6 km/h 6.4 km/h 76% 0 mm 16 W/m2
18:04 15.4 °C 11.7 °C 1018.5 hPa SSW 1.3 km/h 4.8 km/h 76% 0 mm 14 W/m2
18:09 15.3 °C 11.7 °C 1018.5 hPa SSW 3.2 km/h 6.4 km/h 76.4% 0 mm 7 W/m2
18:14 15.1 °C 11.6 °C 1018.5 hPa SSW 1.9 km/h 6.4 km/h 77% 0 mm 0 W/m2
18:19 14.9 °C 11.4 °C 1018.5 hPa Calm   4.8 km/h 77% 0 mm 0 W/m2
18:24 14.8 °C 11.6 °C 1018.5 hPa Calm   1.6 km/h 78% 0 mm 0 W/m2
18:29 14.7 °C 11.4 °C 1018.5 hPa SSW 0.3 km/h 4.8 km/h 78% 0 mm 0 W/m2
18:34 14.6 °C 11.3 °C 1018.5 hPa SSW 1.3 km/h 4.8 km/h 78% 0 mm 0 W/m2
18:39 14.4 °C 11.2 °C 1018.5 hPa SSW 1.6 km/h 4.8 km/h 78.4% 0 mm 0 W/m2
18:44 14.3 °C 11.2 °C 1018.5 hPa Calm     79% 0 mm 0 W/m2
18:49 14.3 °C 11.2 °C 1018.5 hPa Calm     79% 0 mm 0 W/m2
18:54 14.2 °C 11.1 °C 1018.5 hPa Calm   1.6 km/h 79% 0 mm 0 W/m2
18:59 14.1 °C 11.1 °C 1018.5 hPa Calm   1.6 km/h 79.8% 0 mm 0 W/m2
19:04 13.9 °C 11 °C 1018.5 hPa SSW 0.6 km/h 3.2 km/h 80% 0 mm 0 W/m2
19:09 13.8 °C 10.9 °C 1018.5 hPa SSW 1.9 km/h 4.8 km/h 80.4% 0 mm 0 W/m2
19:14 13.7 °C 11 °C 1018.5 hPa Calm   4.8 km/h 81% 0 mm 0 W/m2
19:19 13.6 °C 10.9 °C 1018.5 hPa Calm     81% 0 mm 0 W/m2
19:24 13.4 °C 10.8 °C 1018.5 hPa Calm     81.8% 0 mm 0 W/m2
19:29 13.2 °C 10.7 °C 1018.5 hPa Calm     82% 0 mm 0 W/m2
19:34 13.1 °C 10.8 °C 1018.5 hPa Calm     82.8% 0 mm 0 W/m2
19:39 13.1 °C 10.8 °C 1018.5 hPa Calm     83% 0 mm 0 W/m2
19:44 12.9 °C 10.6 °C 1018.5 hPa Calm     83% 0 mm 0 W/m2
19:49 12.8 °C 10.7 °C 1018.5 hPa Calm     83.8% 0 mm 0 W/m2
19:54 12.7 °C 10.6 °C 1018.5 hPa Calm     84% 0 mm 0 W/m2
19:59 12.6 °C 10.5 °C 1018.5 hPa Calm     84% 0 mm 0 W/m2
20:04 12.6 °C 10.6 °C 1018.5 hPa Calm     85% 0 mm 0 W/m2
20:09 12.4 °C 10.4 °C 1018.5 hPa Calm     85% 0 mm 0 W/m2
20:14 12.3 °C 10.3 °C 1018.5 hPa SSW 0.3 km/h 1.6 km/h 85% 0 mm 0 W/m2
20:19 12.3 °C 10.3 °C 1018.5 hPa Calm   3.2 km/h 85% 0 mm 0 W/m2
20:24 12.4 °C 10.6 °C 1018.5 hPa SSW 2.3 km/h 4.8 km/h 86% 0 mm 0 W/m2
20:29 12.4 °C 10.6 °C 1018.5 hPa SSW 0.3 km/h 3.2 km/h 86% 0 mm 0 W/m2
20:34 12.4 °C 10.6 °C 1018.8 hPa Calm     86% 0 mm 0 W/m2
20:39 12.4 °C 10.6 °C 1018.5 hPa Calm     86% 0 mm 0 W/m2
20:44 12.3 °C 10.5 °C 1018.5 hPa Calm     86% 0 mm 0 W/m2
20:49 12.2 °C 10.4 °C 1018.5 hPa Calm     86% 0 mm 0 W/m2
20:54 12.1 °C 10.4 °C 1018.8 hPa SSW 0.3 km/h 3.2 km/h 86.4% 0 mm 0 W/m2
20:59 12.2 °C 10.6 °C 1018.5 hPa SSW 1 km/h 3.2 km/h 87% 0 mm 0 W/m2
21:04 12.2 °C 10.6 °C 1018.5 hPa SSW 1 km/h 3.2 km/h 87% 0 mm 0 W/m2
21:09 12.2 °C 10.6 °C 1018.5 hPa SSW 1.3 km/h 4.8 km/h 87% 0 mm 0 W/m2
21:14 12.2 °C 10.6 °C 1018.5 hPa Calm   3.2 km/h 87% 0 mm 0 W/m2
21:19 12.1 °C 10.6 °C 1018.5 hPa Calm   1.6 km/h 87% 0 mm 0 W/m2
21:24 12.1 °C 10.5 °C 1018.5 hPa SSW 0.6 km/h 3.2 km/h 87% 0 mm 0 W/m2
21:29 12.1 °C 10.5 °C 1018.5 hPa SSW 1 km/h 3.2 km/h 87% 0 mm 0 W/m2
21:34 12 °C 10.4 °C 1018.5 hPa Calm   3.2 km/h 87% 0 mm 0 W/m2
21:39 11.9 °C 10.3 °C 1018.5 hPa SSW 2.6 km/h 4.8 km/h 87% 0 mm 0 W/m2
21:44 11.9 °C 10.5 °C 1018.5 hPa SSW 1.3 km/h 6.4 km/h 88% 0 mm 0 W/m2
21:49 11.9 °C 10.5 °C 1018.5 hPa SSW 0.3 km/h 3.2 km/h 88% 0 mm 0 W/m2
21:54 11.9 °C 10.5 °C 1018.5 hPa Calm   3.2 km/h 88% 0 mm 0 W/m2
21:59 11.8 °C 10.4 °C 1018.5 hPa SSW 0.3 km/h 3.2 km/h 88% 0 mm 0 W/m2
22:04 11.8 °C 10.4 °C 1018.5 hPa SSW 0.6 km/h 3.2 km/h 88% 0 mm 0 W/m2
22:09 11.8 °C 10.4 °C 1018.5 hPa SSW 0.6 km/h 3.2 km/h 88% 0 mm 0 W/m2
22:14 11.7 °C 10.3 °C 1018.5 hPa SSW 1 km/h 4.8 km/h 88% 0 mm 0 W/m2
22:19 11.7 °C 10.3 °C 1018.5 hPa Calm   3.2 km/h 88% 0 mm 0 W/m2
22:24 11.7 °C 10.3 °C 1018.5 hPa Calm   1.6 km/h 88% 0 mm 0 W/m2
22:29 11.7 °C 10.3 °C 1018.2 hPa Calm   3.2 km/h 89% 0 mm 0 W/m2
22:34 11.6 °C 10.3 °C 1018.2 hPa SSW 0.3 km/h 1.6 km/h 89% 0 mm 0 W/m2
22:39 11.7 °C 10.4 °C 1018.2 hPa SSW 1.4 km/h 4.8 km/h 89% 0 mm 0 W/m2
22:44 11.7 °C 10.4 °C 1018.2 hPa Calm   4.8 km/h 89% 0 mm 0 W/m2
22:49 11.7 °C 10.4 °C 1018.2 hPa SSW 0.3 km/h 4.8 km/h 89% 0 mm 0 W/m2
22:54 11.7 °C 10.4 °C 1018.2 hPa SSW 0.3 km/h 3.2 km/h 89% 0 mm 0 W/m2
22:59 11.7 °C 10.5 °C 1018.2 hPa SSW 2.3 km/h 4.8 km/h 89.6% 0 mm 0 W/m2
23:04 11.7 °C 10.6 °C 1018.2 hPa SSW 0.8 km/h 4.8 km/h 90% 0 mm 0 W/m2
23:09 11.6 °C 10.5 °C 1018.2 hPa SSW 0.3 km/h 3.2 km/h 90% 0 mm 0 W/m2
23:14 11.6 °C 10.5 °C 1018.2 hPa SSW 1.6 km/h 6.4 km/h 90% 0 mm 0 W/m2
23:19 11.6 °C 10.5 °C 1018.2 hPa Calm   3.2 km/h 90% 0 mm 0 W/m2
23:24 11.6 °C 10.5 °C 1018.2 hPa Calm     90% 0 mm 0 W/m2
23:29 11.6 °C 10.5 °C 1018.2 hPa SSW 1.3 km/h 3.2 km/h 90% 0 mm 0 W/m2
23:34 11.5 °C 10.4 °C 1018.2 hPa SSW 0.6 km/h 3.2 km/h 90% 0 mm 0 W/m2
23:39 11.5 °C 10.4 °C 1017.8 hPa SSW 1.4 km/h 3.2 km/h 90% 0 mm 0 W/m2
23:44 11.4 °C 10.3 °C 1017.8 hPa SSW 0.8 km/h 3.2 km/h 90% 0 mm 0 W/m2
23:49 11.4 °C 10.3 °C 1017.8 hPa SSW 1.6 km/h 3.2 km/h 90% 0 mm 0 W/m2
23:54 11.4 °C 10.5 °C 1017.8 hPa SSW 0.8 km/h 3.2 km/h 91% 0 mm 0 W/m2
23:59 11.3 °C 10.4 °C 1017.8 hPa Calm     91% 0 mm 0 W/m2
Bath Spa Weather
Compliments of Weather Underground - 2 mb